^^
Saratoga-Weather Station Historical Data
Daily Summary for March 5, 2021 Units:  Both    English   Metric
Daily Weekly Monthly Yearly Custom
  High: Low: Average:
Temperature: 36.9 °F /  2.7 °C 35.1 °F /  1.7 °C 35.8 °F /  2.1 °C
Dew Point: 34.2 °F /  1.2 °C 32 °F /  0 °C 33.3 °F /  0.7 °C
Humidity: 92% 87% 90%
Wind Speed: 4.9mph /  7.9km/h - 1.2mph /  1.9km/h
Wind Gust: 10mph /  16.1km/h - -
Wind- - SE
Pressure: 29.9 in /  1013.2 hPa 29.9 in /  1011.5 hPa -
Precipitation: 0 in /  0.0 mm    
Historical Graphs
 
 
Tabular Data for March 5, 2021
Time Temperature Dew Point Pressure Wind Wind Speed Wind Gust Humidity Rainfall Rate (Hourly) solar
00:02 35.2 °F /  1.8 °C 32 °F /  0 °C 29.9in /  1011.5hPa NE 2mph /  3.2km/h 10mph /  16.1km/h 88% 0in /  0.0mm 0 W/m2
00:07 35.2 °F /  1.8 °C 32.4 °F /  0.2 °C 29.9in /  1011.9hPa ESE 0.9mph /  1.4km/h 6mph /  9.7km/h 89% 0in /  0.0mm 0 W/m2
00:12 35.2 °F /  1.8 °C 32.4 °F /  0.2 °C 29.9in /  1011.9hPa East 0.9mph /  1.4km/h 10mph /  16.1km/h 89% 0in /  0.0mm 0 W/m2
00:17 35.2 °F /  1.8 °C 32.4 °F /  0.2 °C 29.9in /  1011.9hPa ENE 2mph /  3.2km/h 9mph /  14.5km/h 89% 0in /  0.0mm 0 W/m2
00:22 35.2 °F /  1.8 °C 32.4 °F /  0.2 °C 29.9in /  1011.9hPa East 2mph /  3.2km/h 9mph /  14.5km/h 89% 0in /  0.0mm 0 W/m2
00:27 35.2 °F /  1.8 °C 32.4 °F /  0.2 °C 29.9in /  1011.9hPa East 2mph /  3.2km/h 2mph /  3.2km/h 89% 0in /  0.0mm 0 W/m2
00:32 35.2 °F /  1.8 °C 32.4 °F /  0.2 °C 29.9in /  1011.9hPa ENE 2mph /  3.2km/h 9mph /  14.5km/h 89% 0in /  0.0mm 0 W/m2
00:37 35.2 °F /  1.8 °C 32.4 °F /  0.2 °C 29.9in /  1011.9hPa ESE 2.9mph /  4.7km/h 3mph /  4.8km/h 89% 0in /  0.0mm 0 W/m2
00:42 35.1 °F /  1.7 °C 32.4 °F /  0.2 °C 29.9in /  1011.9hPa East 2.9mph /  4.7km/h 5mph /  8km/h 90% 0in /  0.0mm 0 W/m2
00:47 35.1 °F /  1.7 °C 32.4 °F /  0.2 °C 29.9in /  1011.9hPa East 4.9mph /  7.9km/h 7mph /  11.3km/h 90% 0in /  0.0mm 0 W/m2
00:52 35.1 °F /  1.7 °C 32.4 °F /  0.2 °C 29.9in /  1011.9hPa ENE 0.9mph /  1.4km/h 3mph /  4.8km/h 90% 0in /  0.0mm 0 W/m2
00:57 35.1 °F /  1.7 °C 32.4 °F /  0.2 °C 29.9in /  1011.5hPa ENE 2.9mph /  4.7km/h 6mph /  9.7km/h 90% 0in /  0.0mm 0 W/m2
01:02 35.1 °F /  1.7 °C 32.4 °F /  0.2 °C 29.9in /  1011.9hPa NE 0.9mph /  1.4km/h 5mph /  8km/h 90% 0in /  0.0mm 0 W/m2
01:07 35.1 °F /  1.7 °C 32.4 °F /  0.2 °C 29.9in /  1011.9hPa ENE 2mph /  3.2km/h 5mph /  8km/h 90% 0in /  0.0mm 0 W/m2
01:12 35.1 °F /  1.7 °C 32.4 °F /  0.2 °C 29.9in /  1011.9hPa ENE 0.9mph /  1.4km/h 5mph /  8km/h 90% 0in /  0.0mm 0 W/m2
01:17 35.1 °F /  1.7 °C 32.4 °F /  0.2 °C 29.9in /  1011.9hPa ENE 0.9mph /  1.4km/h 3mph /  4.8km/h 90% 0in /  0.0mm 0 W/m2
01:22 35.1 °F /  1.7 °C 32.4 °F /  0.2 °C 29.9in /  1011.9hPa ENE 2mph /  3.2km/h 5mph /  8km/h 90% 0in /  0.0mm 0 W/m2
01:27 35.1 °F /  1.7 °C 32.2 °F /  0.1 °C 29.9in /  1011.9hPa NE 0.9mph /  1.4km/h 5mph /  8km/h 89% 0in /  0.0mm 0 W/m2
01:32 35.2 °F /  1.8 °C 32.4 °F /  0.2 °C 29.9in /  1011.9hPa Calm   5mph /  8km/h 89% 0in /  0.0mm 0 W/m2
01:37 35.2 °F /  1.8 °C 32 °F /  0 °C 29.9in /  1011.9hPa East 2mph /  3.2km/h 7mph /  11.3km/h 88% 0in /  0.0mm 0 W/m2
01:42 35.2 °F /  1.8 °C 32 °F /  0 °C 29.9in /  1011.9hPa East 2.9mph /  4.7km/h 6mph /  9.7km/h 88% 0in /  0.0mm 0 W/m2
01:47 35.4 °F /  1.9 °C 32.2 °F /  0.1 °C 29.9in /  1011.9hPa East 4mph /  6.4km/h 4mph /  6.4km/h 88% 0in /  0.0mm 0 W/m2
01:52 35.2 °F /  1.8 °C 32 °F /  0 °C 29.9in /  1011.9hPa Calm   6mph /  9.7km/h 88% 0in /  0.0mm 0 W/m2
01:57 35.4 °F /  1.9 °C 32.2 °F /  0.1 °C 29.9in /  1011.9hPa East 0.9mph /  1.4km/h 2mph /  3.2km/h 88% 0in /  0.0mm 0 W/m2
02:02 35.4 °F /  1.9 °C 32.2 °F /  0.1 °C 29.9in /  1011.9hPa ENE 2.9mph /  4.7km/h 8mph /  12.9km/h 88% 0in /  0.0mm 0 W/m2
02:07 35.4 °F /  1.9 °C 32 °F /  0 °C 29.9in /  1011.9hPa East 0.9mph /  1.4km/h 2mph /  3.2km/h 87% 0in /  0.0mm 0 W/m2
02:12 35.4 °F /  1.9 °C 32 °F /  0 °C 29.9in /  1011.9hPa ENE 0.9mph /  1.4km/h 8mph /  12.9km/h 87% 0in /  0.0mm 0 W/m2
02:17 35.4 °F /  1.9 °C 32 °F /  0 °C 29.9in /  1011.9hPa NE 0.9mph /  1.4km/h 6mph /  9.7km/h 87% 0in /  0.0mm 0 W/m2
02:22 35.4 °F /  1.9 °C 32 °F /  0 °C 29.9in /  1011.9hPa ENE 2mph /  3.2km/h 2mph /  3.2km/h 87% 0in /  0.0mm 0 W/m2
02:27 35.4 °F /  1.9 °C 32 °F /  0 °C 29.9in /  1011.9hPa NE 2.9mph /  4.7km/h 3mph /  4.8km/h 87% 0in /  0.0mm 0 W/m2
02:32 35.4 °F /  1.9 °C 32.2 °F /  0.1 °C 29.9in /  1011.9hPa East 2mph /  3.2km/h 3mph /  4.8km/h 88% 0in /  0.0mm 0 W/m2
02:37 35.4 °F /  1.9 °C 32.2 °F /  0.1 °C 29.9in /  1011.9hPa ENE 0.9mph /  1.4km/h 3mph /  4.8km/h 88% 0in /  0.0mm 0 W/m2
02:43 35.4 °F /  1.9 °C 32.2 °F /  0.1 °C 29.9in /  1011.9hPa ESE 2mph /  3.2km/h 3mph /  4.8km/h 88% 0in /  0.0mm 0 W/m2
02:48 35.2 °F /  1.8 °C 32 °F /  0 °C 29.9in /  1011.9hPa Calm   2mph /  3.2km/h 88% 0in /  0.0mm 0 W/m2
02:53 35.2 °F /  1.8 °C 32 °F /  0 °C 29.9in /  1011.9hPa Calm   1mph /  1.6km/h 88% 0in /  0.0mm 0 W/m2
02:58 35.2 °F /  1.8 °C 32.4 °F /  0.2 °C 29.9in /  1011.9hPa Calm   2mph /  3.2km/h 89% 0in /  0.0mm 0 W/m2
03:03 35.2 °F /  1.8 °C 32.4 °F /  0.2 °C 29.9in /  1011.9hPa East 4mph /  6.4km/h 4mph /  6.4km/h 89% 0in /  0.0mm 0 W/m2
03:08 35.2 °F /  1.8 °C 32.4 °F /  0.2 °C 29.9in /  1011.9hPa NE 0.9mph /  1.4km/h 4mph /  6.4km/h 89% 0in /  0.0mm 0 W/m2
03:13 35.2 °F /  1.8 °C 32.4 °F /  0.2 °C 29.9in /  1011.9hPa SSE 0.9mph /  1.4km/h 2mph /  3.2km/h 89% 0in /  0.0mm 0 W/m2
03:18 35.2 °F /  1.8 °C 32.4 °F /  0.2 °C 29.9in /  1011.9hPa NE 0.9mph /  1.4km/h 3mph /  4.8km/h 89% 0in /  0.0mm 0 W/m2
03:23 35.2 °F /  1.8 °C 32.4 °F /  0.2 °C 29.9in /  1012.2hPa Calm   1mph /  1.6km/h 89% 0in /  0.0mm 0 W/m2
03:28 35.2 °F /  1.8 °C 32.5 °F /  0.3 °C 29.9in /  1011.9hPa ENE 0.9mph /  1.4km/h 2mph /  3.2km/h 90% 0in /  0.0mm 0 W/m2
03:33 35.2 °F /  1.8 °C 32.5 °F /  0.3 °C 29.9in /  1011.9hPa ENE 0.9mph /  1.4km/h 1mph /  1.6km/h 90% 0in /  0.0mm 0 W/m2
03:38 35.2 °F /  1.8 °C 32.5 °F /  0.3 °C 29.9in /  1011.9hPa ENE 0.9mph /  1.4km/h 3mph /  4.8km/h 90% 0in /  0.0mm 0 W/m2
03:43 35.2 °F /  1.8 °C 32.5 °F /  0.3 °C 29.9in /  1011.9hPa East 0.9mph /  1.4km/h 3mph /  4.8km/h 90% 0in /  0.0mm 0 W/m2
03:48 35.2 °F /  1.8 °C 32.5 °F /  0.3 °C 29.9in /  1011.9hPa Calm   1mph /  1.6km/h 90% 0in /  0.0mm 0 W/m2
03:53 35.2 °F /  1.8 °C 32.5 °F /  0.3 °C 29.9in /  1011.9hPa Calm   1mph /  1.6km/h 90% 0in /  0.0mm 0 W/m2
03:58 35.2 °F /  1.8 °C 32.5 °F /  0.3 °C 29.9in /  1011.9hPa Calm   3mph /  4.8km/h 90% 0in /  0.0mm 0 W/m2
04:03 35.1 °F /  1.7 °C 32.4 °F /  0.2 °C 29.9in /  1011.9hPa ENE 0.9mph /  1.4km/h 2mph /  3.2km/h 90% 0in /  0.0mm 0 W/m2
04:08 35.1 °F /  1.7 °C 32.4 °F /  0.2 °C 29.9in /  1011.9hPa East 2mph /  3.2km/h 2mph /  3.2km/h 90% 0in /  0.0mm 0 W/m2
04:13 35.2 °F /  1.8 °C 32.5 °F /  0.3 °C 29.9in /  1011.9hPa East 0.9mph /  1.4km/h 3mph /  4.8km/h 90% 0in /  0.0mm 0 W/m2
04:18 35.1 °F /  1.7 °C 32.4 °F /  0.2 °C 29.9in /  1011.9hPa ENE 0.9mph /  1.4km/h 1mph /  1.6km/h 90% 0in /  0.0mm 0 W/m2
04:23 35.2 °F /  1.8 °C 32.5 °F /  0.3 °C 29.9in /  1011.9hPa ENE 0.9mph /  1.4km/h 3mph /  4.8km/h 90% 0in /  0.0mm 0 W/m2
04:28 35.2 °F /  1.8 °C 32.5 °F /  0.3 °C 29.9in /  1011.9hPa Calm   2mph /  3.2km/h 90% 0in /  0.0mm 0 W/m2
04:33 35.2 °F /  1.8 °C 32.9 °F /  0.5 °C 29.9in /  1011.9hPa Calm   2mph /  3.2km/h 91% 0in /  0.0mm 0 W/m2
04:38 35.1 °F /  1.7 °C 32.7 °F /  0.4 °C 29.9in /  1011.9hPa ENE 0.9mph /  1.4km/h 4mph /  6.4km/h 91% 0in /  0.0mm 0 W/m2
04:43 35.1 °F /  1.7 °C 32.7 °F /  0.4 °C 29.9in /  1011.9hPa Calm   3mph /  4.8km/h 91% 0in /  0.0mm 0 W/m2
04:48 35.2 °F /  1.8 °C 32.9 °F /  0.5 °C 29.9in /  1011.9hPa East 0.9mph /  1.4km/h 3mph /  4.8km/h 91% 0in /  0.0mm 0 W/m2
04:53 35.2 °F /  1.8 °C 32.9 °F /  0.5 °C 29.9in /  1011.9hPa East 2mph /  3.2km/h 3mph /  4.8km/h 91% 0in /  0.0mm 0 W/m2
04:58 35.1 °F /  1.7 °C 32.7 °F /  0.4 °C 29.9in /  1011.9hPa Calm   2mph /  3.2km/h 91% 0in /  0.0mm 0 W/m2
05:03 35.2 °F /  1.8 °C 32.9 °F /  0.5 °C 29.9in /  1011.9hPa East 0.9mph /  1.4km/h 2mph /  3.2km/h 91% 0in /  0.0mm 0 W/m2
05:08 35.2 °F /  1.8 °C 32.9 °F /  0.5 °C 29.9in /  1011.9hPa ENE 0.9mph /  1.4km/h 3mph /  4.8km/h 91% 0in /  0.0mm 0 W/m2
05:13 35.2 °F /  1.8 °C 32.9 °F /  0.5 °C 29.9in /  1011.9hPa Calm   3mph /  4.8km/h 91% 0in /  0.0mm 0 W/m2
05:18 35.1 °F /  1.7 °C 32.7 °F /  0.4 °C 29.9in /  1012.2hPa Calm   3mph /  4.8km/h 91% 0in /  0.0mm 0 W/m2
05:23 35.2 °F /  1.8 °C 32.9 °F /  0.5 °C 29.9in /  1012.2hPa Calm   2mph /  3.2km/h 91% 0in /  0.0mm 0 W/m2
05:28 35.2 °F /  1.8 °C 32.9 °F /  0.5 °C 29.9in /  1012.2hPa ENE 0.9mph /  1.4km/h 4mph /  6.4km/h 91% 0in /  0.0mm 0 W/m2
05:33 35.2 °F /  1.8 °C 32.9 °F /  0.5 °C 29.9in /  1012.2hPa ESE 0.9mph /  1.4km/h 3mph /  4.8km/h 91% 0in /  0.0mm 0 W/m2
05:38 35.2 °F /  1.8 °C 32.9 °F /  0.5 °C 29.9in /  1012.2hPa East 0.9mph /  1.4km/h 3mph /  4.8km/h 91% 0in /  0.0mm 0 W/m2
05:43 35.2 °F /  1.8 °C 32.9 °F /  0.5 °C 29.9in /  1012.2hPa East 0.9mph /  1.4km/h 2mph /  3.2km/h 91% 0in /  0.0mm 0 W/m2
05:48 35.2 °F /  1.8 °C 32.9 °F /  0.5 °C 29.9in /  1012.2hPa Calm   6mph /  9.7km/h 91% 0in /  0.0mm 0 W/m2
05:53 35.2 °F /  1.8 °C 32.9 °F /  0.5 °C 29.9in /  1012.2hPa NE 2mph /  3.2km/h 2mph /  3.2km/h 91% 0in /  0.0mm 0 W/m2
05:58 35.2 °F /  1.8 °C 32.9 °F /  0.5 °C 29.9in /  1012.2hPa NNE 0.9mph /  1.4km/h 3mph /  4.8km/h 91% 0in /  0.0mm 0 W/m2
06:03 35.2 °F /  1.8 °C 32.9 °F /  0.5 °C 29.9in /  1012.2hPa Calm   4mph /  6.4km/h 91% 0in /  0.0mm 0 W/m2
06:08 35.2 °F /  1.8 °C 32.9 °F /  0.5 °C 29.9in /  1012.2hPa ENE 2.9mph /  4.7km/h 4mph /  6.4km/h 91% 0in /  0.0mm 0 W/m2
06:13 35.2 °F /  1.8 °C 32.9 °F /  0.5 °C 29.9in /  1012.2hPa ENE 0.9mph /  1.4km/h 3mph /  4.8km/h 91% 0in /  0.0mm 0 W/m2
06:18 35.2 °F /  1.8 °C 32.9 °F /  0.5 °C 29.9in /  1012.2hPa Calm   3mph /  4.8km/h 91% 0in /  0.0mm 0 W/m2
06:23 35.2 °F /  1.8 °C 32.9 °F /  0.5 °C 29.9in /  1012.2hPa East 0.9mph /  1.4km/h 3mph /  4.8km/h 91% 0in /  0.0mm 0 W/m2
06:28 35.2 °F /  1.8 °C 32.9 °F /  0.5 °C 29.9in /  1012.5hPa ENE 0.9mph /  1.4km/h 1mph /  1.6km/h 91% 0in /  0.0mm 0 W/m2
06:33 35.2 °F /  1.8 °C 32.9 °F /  0.5 °C 29.9in /  1012.5hPa East 2mph /  3.2km/h 3mph /  4.8km/h 91% 0in /  0.0mm 0 W/m2
06:38 35.2 °F /  1.8 °C 32.9 °F /  0.5 °C 29.9in /  1012.5hPa SE 0.9mph /  1.4km/h 5mph /  8km/h 91% 0in /  0.0mm 0 W/m2
06:43 35.2 °F /  1.8 °C 32.9 °F /  0.5 °C 29.9in /  1012.5hPa Calm   2mph /  3.2km/h 91% 0in /  0.0mm 0 W/m2
06:48 35.2 °F /  1.8 °C 32.9 °F /  0.5 °C 29.9in /  1012.5hPa ENE 0.9mph /  1.4km/h 3mph /  4.8km/h 91% 0in /  0.0mm 0 W/m2
06:53 35.2 °F /  1.8 °C 32.9 °F /  0.5 °C 29.9in /  1012.2hPa ESE 2mph /  3.2km/h 2mph /  3.2km/h 91% 0in /  0.0mm 0 W/m2
06:58 35.2 °F /  1.8 °C 32.9 °F /  0.5 °C 29.9in /  1012.2hPa ENE 4mph /  6.4km/h 4mph /  6.4km/h 91% 0in /  0.0mm 0 W/m2
07:03 35.2 °F /  1.8 °C 32.9 °F /  0.5 °C 29.9in /  1012.2hPa Calm   2mph /  3.2km/h 91% 0in /  0.0mm 0 W/m2
07:08 35.2 °F /  1.8 °C 32.9 °F /  0.5 °C 29.9in /  1012.2hPa Calm   3mph /  4.8km/h 91% 0in /  0.0mm 0 W/m2
07:13 35.2 °F /  1.8 °C 32.9 °F /  0.5 °C 29.9in /  1012.2hPa ENE 0.9mph /  1.4km/h 3mph /  4.8km/h 91% 0in /  0.0mm 0 W/m2
07:18 35.2 °F /  1.8 °C 32.9 °F /  0.5 °C 29.9in /  1012.5hPa Calm     91% 0in /  0.0mm 0 W/m2
07:23 35.2 °F /  1.8 °C 32.9 °F /  0.5 °C 29.9in /  1012.5hPa Calm   3mph /  4.8km/h 91% 0in /  0.0mm 0 W/m2
07:28 35.2 °F /  1.8 °C 32.9 °F /  0.5 °C 29.9in /  1012.5hPa NE 2.9mph /  4.7km/h 5mph /  8km/h 91% 0in /  0.0mm 0 W/m2
07:33 35.2 °F /  1.8 °C 32.9 °F /  0.5 °C 29.9in /  1012.5hPa East 0.9mph /  1.4km/h 3mph /  4.8km/h 91% 0in /  0.0mm 0 W/m2
07:38 35.2 °F /  1.8 °C 32.9 °F /  0.5 °C 29.9in /  1012.5hPa Calm   4mph /  6.4km/h 91% 0in /  0.0mm 0 W/m2
07:43 35.2 °F /  1.8 °C 32.9 °F /  0.5 °C 29.9in /  1012.5hPa East 0.9mph /  1.4km/h 3mph /  4.8km/h 91% 0in /  0.0mm 0 W/m2
07:48 35.2 °F /  1.8 °C 32.9 °F /  0.5 °C 29.9in /  1012.5hPa ESE 0.9mph /  1.4km/h 3mph /  4.8km/h 91% 0in /  0.0mm 0 W/m2
07:53 35.2 °F /  1.8 °C 32.9 °F /  0.5 °C 29.9in /  1012.5hPa NE 0.9mph /  1.4km/h 5mph /  8km/h 91% 0in /  0.0mm 0 W/m2
07:58 35.2 °F /  1.8 °C 32.9 °F /  0.5 °C 29.9in /  1012.5hPa East 0.9mph /  1.4km/h 3mph /  4.8km/h 91% 0in /  0.0mm 0 W/m2
08:03 35.2 °F /  1.8 °C 32.9 °F /  0.5 °C 29.9in /  1012.5hPa ESE 2mph /  3.2km/h 5mph /  8km/h 91% 0in /  0.0mm 0 W/m2
08:08 35.2 °F /  1.8 °C 32.9 °F /  0.5 °C 29.9in /  1012.5hPa Calm   3mph /  4.8km/h 91% 0in /  0.0mm 0 W/m2
08:13 35.2 °F /  1.8 °C 32.9 °F /  0.5 °C 29.9in /  1012.9hPa NE 0.9mph /  1.4km/h 5mph /  8km/h 91% 0in /  0.0mm 0 W/m2
08:18 35.2 °F /  1.8 °C 32.9 °F /  0.5 °C 29.9in /  1012.9hPa Calm     91% 0in /  0.0mm 0 W/m2
08:23 35.2 °F /  1.8 °C 32.9 °F /  0.5 °C 29.9in /  1012.9hPa East 2mph /  3.2km/h 6mph /  9.7km/h 91% 0in /  0.0mm 0 W/m2
08:28 35.2 °F /  1.8 °C 32.9 °F /  0.5 °C 29.9in /  1012.9hPa NE 0.9mph /  1.4km/h 5mph /  8km/h 91% 0in /  0.0mm 0 W/m2
08:33 35.2 °F /  1.8 °C 32.9 °F /  0.5 °C 29.9in /  1012.5hPa East 0.9mph /  1.4km/h 6mph /  9.7km/h 91% 0in /  0.0mm 0 W/m2
08:38 35.2 °F /  1.8 °C 32.9 °F /  0.5 °C 29.9in /  1012.9hPa ENE 2mph /  3.2km/h 2mph /  3.2km/h 91% 0in /  0.0mm 0 W/m2
08:43 35.2 °F /  1.8 °C 32.9 °F /  0.5 °C 29.9in /  1012.9hPa NNE 2mph /  3.2km/h 2mph /  3.2km/h 91% 0in /  0.0mm 0 W/m2
08:48 35.2 °F /  1.8 °C 32.9 °F /  0.5 °C 29.9in /  1012.9hPa NE 0.9mph /  1.4km/h 3mph /  4.8km/h 91% 0in /  0.0mm 0 W/m2
08:53 35.2 °F /  1.8 °C 32.9 °F /  0.5 °C 29.9in /  1012.9hPa NE 0.9mph /  1.4km/h 2mph /  3.2km/h 91% 0in /  0.0mm 0 W/m2
08:58 35.2 °F /  1.8 °C 32.9 °F /  0.5 °C 29.9in /  1012.9hPa North 2mph /  3.2km/h 3mph /  4.8km/h 91% 0in /  0.0mm 0 W/m2
09:03 35.2 °F /  1.8 °C 32.9 °F /  0.5 °C 29.9in /  1012.9hPa SSE 0.9mph /  1.4km/h 2mph /  3.2km/h 91% 0in /  0.0mm 0 W/m2
09:08 35.2 °F /  1.8 °C 32.9 °F /  0.5 °C 29.9in /  1012.9hPa East 2mph /  3.2km/h 4mph /  6.4km/h 91% 0in /  0.0mm 5 W/m2
09:13 35.2 °F /  1.8 °C 32.9 °F /  0.5 °C 29.9in /  1012.9hPa Calm   4mph /  6.4km/h 91% 0in /  0.0mm 5 W/m2
09:18 35.2 °F /  1.8 °C 32.9 °F /  0.5 °C 29.9in /  1012.9hPa NW 2mph /  3.2km/h 3mph /  4.8km/h 91% 0in /  0.0mm 7 W/m2
09:23 35.2 °F /  1.8 °C 32.9 °F /  0.5 °C 29.9in /  1012.9hPa Calm   3mph /  4.8km/h 91% 0in /  0.0mm 9 W/m2
09:28 35.4 °F /  1.9 °C 33.1 °F /  0.6 °C 29.9in /  1012.9hPa Calm   2mph /  3.2km/h 91% 0in /  0.0mm 12 W/m2
09:33 35.4 °F /  1.9 °C 33.1 °F /  0.6 °C 29.9in /  1012.9hPa NE 0.9mph /  1.4km/h 1mph /  1.6km/h 91% 0in /  0.0mm 12 W/m2
09:38 35.4 °F /  1.9 °C 33.1 °F /  0.6 °C 29.9in /  1012.9hPa NNE 0.9mph /  1.4km/h 2mph /  3.2km/h 91% 0in /  0.0mm 12 W/m2
09:44 35.4 °F /  1.9 °C 33.1 °F /  0.6 °C 29.9in /  1012.9hPa Calm   2mph /  3.2km/h 91% 0in /  0.0mm 12 W/m2
09:49 35.4 °F /  1.9 °C 33.1 °F /  0.6 °C 29.9in /  1012.5hPa Calm   3mph /  4.8km/h 91% 0in /  0.0mm 18 W/m2
09:54 35.4 °F /  1.9 °C 33.1 °F /  0.6 °C 29.9in /  1012.5hPa NW 0.9mph /  1.4km/h 2mph /  3.2km/h 91% 0in /  0.0mm 18 W/m2
09:59 35.4 °F /  1.9 °C 33.1 °F /  0.6 °C 29.9in /  1012.9hPa NE 2mph /  3.2km/h 5mph /  8km/h 91% 0in /  0.0mm 18 W/m2
10:04 35.4 °F /  1.9 °C 33.1 °F /  0.6 °C 29.9in /  1012.9hPa East 0.9mph /  1.4km/h 3mph /  4.8km/h 91% 0in /  0.0mm 18 W/m2
10:09 35.4 °F /  1.9 °C 33.1 °F /  0.6 °C 29.9in /  1012.5hPa NE 0.9mph /  1.4km/h 2mph /  3.2km/h 91% 0in /  0.0mm 21 W/m2
10:14 35.4 °F /  1.9 °C 33.1 °F /  0.6 °C 29.9in /  1012.9hPa NE 2mph /  3.2km/h 3mph /  4.8km/h 91% 0in /  0.0mm 23 W/m2
10:19 35.6 °F /  2 °C 33.3 °F /  0.7 °C 29.9in /  1012.9hPa Calm   2mph /  3.2km/h 91% 0in /  0.0mm 25 W/m2
10:24 35.6 °F /  2 °C 33.3 °F /  0.7 °C 29.9in /  1012.9hPa Calm   4mph /  6.4km/h 91% 0in /  0.0mm 28 W/m2
10:29 35.8 °F /  2.1 °C 33.4 °F /  0.8 °C 29.9in /  1012.9hPa ENE 2.9mph /  4.7km/h 5mph /  8km/h 91% 0in /  0.0mm 30 W/m2
10:34 35.8 °F /  2.1 °C 33.4 °F /  0.8 °C 29.9in /  1012.9hPa NE 2.9mph /  4.7km/h 7mph /  11.3km/h 91% 0in /  0.0mm 26 W/m2
10:39 35.8 °F /  2.1 °C 33.4 °F /  0.8 °C 29.9in /  1012.9hPa North 0.9mph /  1.4km/h 3mph /  4.8km/h 91% 0in /  0.0mm 26 W/m2
10:44 35.8 °F /  2.1 °C 33.4 °F /  0.8 °C 29.9in /  1012.9hPa West 0.9mph /  1.4km/h 5mph /  8km/h 91% 0in /  0.0mm 28 W/m2
10:49 36 °F /  2.2 °C 33.6 °F /  0.9 °C 29.9in /  1012.9hPa ESE 2.9mph /  4.7km/h 7mph /  11.3km/h 91% 0in /  0.0mm 26 W/m2
10:54 36 °F /  2.2 °C 33.3 °F /  0.7 °C 29.9in /  1012.9hPa East 2mph /  3.2km/h 4mph /  6.4km/h 90% 0in /  0.0mm 28 W/m2
10:59 36 °F /  2.2 °C 33.3 °F /  0.7 °C 29.9in /  1012.9hPa NNE 2mph /  3.2km/h 7mph /  11.3km/h 90% 0in /  0.0mm 33 W/m2
11:04 36 °F /  2.2 °C 33.3 °F /  0.7 °C 29.9in /  1012.9hPa Calm   3mph /  4.8km/h 90% 0in /  0.0mm 26 W/m2
11:09 36 °F /  2.2 °C 33.3 °F /  0.7 °C 29.9in /  1012.9hPa East 0.9mph /  1.4km/h 2mph /  3.2km/h 90% 0in /  0.0mm 26 W/m2
11:14 36.1 °F /  2.3 °C 33.4 °F /  0.8 °C 29.9in /  1012.9hPa Calm   4mph /  6.4km/h 90% 0in /  0.0mm 28 W/m2
11:19 36.1 °F /  2.3 °C 33.4 °F /  0.8 °C 29.9in /  1012.9hPa ENE 0.9mph /  1.4km/h 2mph /  3.2km/h 90% 0in /  0.0mm 28 W/m2
11:24 36.1 °F /  2.3 °C 33.4 °F /  0.8 °C 29.9in /  1012.9hPa South 0.9mph /  1.4km/h 2mph /  3.2km/h 90% 0in /  0.0mm 39 W/m2
11:29 36.1 °F /  2.3 °C 33.4 °F /  0.8 °C 29.9in /  1012.9hPa SE 2mph /  3.2km/h 2mph /  3.2km/h 90% 0in /  0.0mm 32 W/m2
11:34 36.1 °F /  2.3 °C 33.4 °F /  0.8 °C 29.9in /  1012.9hPa NNW 2.9mph /  4.7km/h 5mph /  8km/h 90% 0in /  0.0mm 35 W/m2
11:39 36.1 °F /  2.3 °C 33.4 °F /  0.8 °C 29.9in /  1012.9hPa North 2mph /  3.2km/h 3mph /  4.8km/h 90% 0in /  0.0mm 39 W/m2
11:44 36.3 °F /  2.4 °C 33.6 °F /  0.9 °C 29.9in /  1012.9hPa NE 2mph /  3.2km/h 3mph /  4.8km/h 90% 0in /  0.0mm 37 W/m2
11:49 36.3 °F /  2.4 °C 33.6 °F /  0.9 °C 29.9in /  1012.9hPa Calm   1mph /  1.6km/h 90% 0in /  0.0mm 37 W/m2
11:54 36.3 °F /  2.4 °C 33.6 °F /  0.9 °C 29.9in /  1012.9hPa NNE 2.9mph /  4.7km/h 3mph /  4.8km/h 90% 0in /  0.0mm 39 W/m2
11:59 36.3 °F /  2.4 °C 33.6 °F /  0.9 °C 29.9in /  1012.9hPa Calm   5mph /  8km/h 90% 0in /  0.0mm 37 W/m2
12:04 36.3 °F /  2.4 °C 33.6 °F /  0.9 °C 29.9in /  1012.9hPa NNE 0.9mph /  1.4km/h 4mph /  6.4km/h 90% 0in /  0.0mm 39 W/m2
12:09 36.3 °F /  2.4 °C 33.6 °F /  0.9 °C 29.9in /  1012.9hPa ENE 2mph /  3.2km/h 5mph /  8km/h 90% 0in /  0.0mm 33 W/m2
12:14 36.5 °F /  2.5 °C 33.8 °F /  1 °C 29.9in /  1012.9hPa Calm   5mph /  8km/h 90% 0in /  0.0mm 33 W/m2
12:19 36.5 °F /  2.5 °C 33.8 °F /  1 °C 29.9in /  1012.9hPa East 0.9mph /  1.4km/h 2mph /  3.2km/h 90% 0in /  0.0mm 30 W/m2
12:24 36.5 °F /  2.5 °C 33.8 °F /  1 °C 29.9in /  1012.9hPa NNW 0.9mph /  1.4km/h 3mph /  4.8km/h 90% 0in /  0.0mm 40 W/m2
12:29 36.7 °F /  2.6 °C 34 °F /  1.1 °C 29.9in /  1012.9hPa NE 2mph /  3.2km/h 3mph /  4.8km/h 90% 0in /  0.0mm 44 W/m2
12:34 36.7 °F /  2.6 °C 34 °F /  1.1 °C 29.9in /  1012.5hPa East 2mph /  3.2km/h 4mph /  6.4km/h 90% 0in /  0.0mm 53 W/m2
12:39 36.7 °F /  2.6 °C 34 °F /  1.1 °C 29.9in /  1012.5hPa East 0.9mph /  1.4km/h 1mph /  1.6km/h 90% 0in /  0.0mm 37 W/m2
12:44 36.7 °F /  2.6 °C 34 °F /  1.1 °C 29.9in /  1012.9hPa North 0.9mph /  1.4km/h 2mph /  3.2km/h 90% 0in /  0.0mm 35 W/m2
12:49 36.7 °F /  2.6 °C 34 °F /  1.1 °C 29.9in /  1012.5hPa NE 0.9mph /  1.4km/h 2mph /  3.2km/h 90% 0in /  0.0mm 33 W/m2
12:54 36.9 °F /  2.7 °C 34.2 °F /  1.2 °C 29.9in /  1012.5hPa Calm   3mph /  4.8km/h 90% 0in /  0.0mm 35 W/m2
12:59 36.9 °F /  2.7 °C 34.2 °F /  1.2 °C 29.9in /  1012.5hPa Calm   4mph /  6.4km/h 90% 0in /  0.0mm 39 W/m2
13:04 36.9 °F /  2.7 °C 34.2 °F /  1.2 °C 29.9in /  1012.5hPa East 4mph /  6.4km/h 4mph /  6.4km/h 90% 0in /  0.0mm 30 W/m2
13:09 36.9 °F /  2.7 °C 34 °F /  1.1 °C 29.9in /  1012.2hPa ENE 2mph /  3.2km/h 7mph /  11.3km/h 89% 0in /  0.0mm 35 W/m2
13:14 36.9 °F /  2.7 °C 34 °F /  1.1 °C 29.9in /  1012.2hPa Calm   3mph /  4.8km/h 89% 0in /  0.0mm 39 W/m2
13:19 36.9 °F /  2.7 °C 34 °F /  1.1 °C 29.9in /  1012.2hPa NNE 0.9mph /  1.4km/h 5mph /  8km/h 89% 0in /  0.0mm 47 W/m2
13:24 36.9 °F /  2.7 °C 34 °F /  1.1 °C 29.9in /  1012.5hPa Calm   2mph /  3.2km/h 89% 0in /  0.0mm 23 W/m2
13:29 36.9 °F /  2.7 °C 34 °F /  1.1 °C 29.9in /  1012.5hPa Calm   4mph /  6.4km/h 89% 0in /  0.0mm 21 W/m2
13:34 36.9 °F /  2.7 °C 34 °F /  1.1 °C 29.9in /  1012.5hPa ENE 0.9mph /  1.4km/h 3mph /  4.8km/h 89% 0in /  0.0mm 23 W/m2
13:39 36.9 °F /  2.7 °C 34 °F /  1.1 °C 29.9in /  1012.2hPa SSE 0.9mph /  1.4km/h 2mph /  3.2km/h 89% 0in /  0.0mm 32 W/m2
13:44 36.9 °F /  2.7 °C 34 °F /  1.1 °C 29.9in /  1012.2hPa Calm   2mph /  3.2km/h 89% 0in /  0.0mm 39 W/m2
13:49 36.9 °F /  2.7 °C 34 °F /  1.1 °C 29.9in /  1012.2hPa Calm   3mph /  4.8km/h 89% 0in /  0.0mm 28 W/m2
13:54 36.9 °F /  2.7 °C 34 °F /  1.1 °C 29.9in /  1012.2hPa WNW 0.9mph /  1.4km/h 3mph /  4.8km/h 89% 0in /  0.0mm 21 W/m2
13:59 36.9 °F /  2.7 °C 34 °F /  1.1 °C 29.9in /  1012.2hPa Calm   2mph /  3.2km/h 89% 0in /  0.0mm 16 W/m2
14:05 36.9 °F /  2.7 °C 34 °F /  1.1 °C 29.9in /  1012.5hPa NW 2mph /  3.2km/h 6mph /  9.7km/h 89% 0in /  0.0mm 9 W/m2
14:10 36.7 °F /  2.6 °C 33.8 °F /  1 °C 29.9in /  1012.5hPa Calm   3mph /  4.8km/h 89% 0in /  0.0mm 9 W/m2
14:15 36.7 °F /  2.6 °C 33.8 °F /  1 °C 29.9in /  1012.5hPa NNW 0.9mph /  1.4km/h 6mph /  9.7km/h 89% 0in /  0.0mm 9 W/m2
14:20 36.7 °F /  2.6 °C 33.8 °F /  1 °C 29.9in /  1012.5hPa WNW 2.9mph /  4.7km/h 3mph /  4.8km/h 89% 0in /  0.0mm 12 W/m2
14:25 36.7 °F /  2.6 °C 33.8 °F /  1 °C 29.9in /  1012.5hPa North 2mph /  3.2km/h 4mph /  6.4km/h 89% 0in /  0.0mm 14 W/m2
14:30 36.7 °F /  2.6 °C 33.8 °F /  1 °C 29.9in /  1012.5hPa ESE 0.9mph /  1.4km/h 3mph /  4.8km/h 89% 0in /  0.0mm 14 W/m2
14:35 36.7 °F /  2.6 °C 33.8 °F /  1 °C 29.9in /  1012.5hPa NNE 2mph /  3.2km/h 3mph /  4.8km/h 89% 0in /  0.0mm 11 W/m2
14:40 36.7 °F /  2.6 °C 33.8 °F /  1 °C 29.9in /  1012.5hPa NNW 2mph /  3.2km/h 4mph /  6.4km/h 89% 0in /  0.0mm 11 W/m2
14:45 36.7 °F /  2.6 °C 33.8 °F /  1 °C 29.9in /  1012.5hPa NNW 2mph /  3.2km/h 3mph /  4.8km/h 89% 0in /  0.0mm 16 W/m2
14:50 36.5 °F /  2.5 °C 33.6 °F /  0.9 °C 29.9in /  1012.5hPa WNW 2mph /  3.2km/h 3mph /  4.8km/h 89% 0in /  0.0mm 18 W/m2
14:55 36.7 °F /  2.6 °C 33.8 °F /  1 °C 29.9in /  1012.5hPa Calm   4mph /  6.4km/h 89% 0in /  0.0mm 14 W/m2
15:00 36.5 °F /  2.5 °C 33.6 °F /  0.9 °C 29.9in /  1012.5hPa NW 2mph /  3.2km/h 2mph /  3.2km/h 89% 0in /  0.0mm 12 W/m2
15:05 36.5 °F /  2.5 °C 33.6 °F /  0.9 °C 29.9in /  1012.5hPa SSW 0.9mph /  1.4km/h 2mph /  3.2km/h 89% 0in /  0.0mm 14 W/m2
15:10 36.5 °F /  2.5 °C 33.8 °F /  1 °C 29.9in /  1012.5hPa NNW 2mph /  3.2km/h 4mph /  6.4km/h 90% 0in /  0.0mm 14 W/m2
15:15 36.3 °F /  2.4 °C 33.6 °F /  0.9 °C 29.9in /  1012.5hPa North 2.9mph /  4.7km/h 3mph /  4.8km/h 90% 0in /  0.0mm 11 W/m2
15:20 36.3 °F /  2.4 °C 33.6 °F /  0.9 °C 29.9in /  1012.5hPa NW 2mph /  3.2km/h 3mph /  4.8km/h 90% 0in /  0.0mm 11 W/m2
15:25 36.3 °F /  2.4 °C 33.6 °F /  0.9 °C 29.9in /  1012.5hPa Calm   4mph /  6.4km/h 90% 0in /  0.0mm 12 W/m2
15:30 36.3 °F /  2.4 °C 33.6 °F /  0.9 °C 29.9in /  1012.5hPa NNW 2.9mph /  4.7km/h 3mph /  4.8km/h 90% 0in /  0.0mm 11 W/m2
15:35 36.3 °F /  2.4 °C 33.6 °F /  0.9 °C 29.9in /  1012.9hPa Calm   2mph /  3.2km/h 90% 0in /  0.0mm 9 W/m2
15:40 36.3 °F /  2.4 °C 33.6 °F /  0.9 °C 29.9in /  1012.5hPa NNW 0.9mph /  1.4km/h 4mph /  6.4km/h 90% 0in /  0.0mm 7 W/m2
15:45 36.3 °F /  2.4 °C 33.6 °F /  0.9 °C 29.9in /  1012.9hPa ESE 0.9mph /  1.4km/h 2mph /  3.2km/h 90% 0in /  0.0mm 5 W/m2
15:50 36.3 °F /  2.4 °C 33.6 °F /  0.9 °C 29.9in /  1012.5hPa Calm   3mph /  4.8km/h 90% 0in /  0.0mm 5 W/m2
15:55 36.3 °F /  2.4 °C 33.6 °F /  0.9 °C 29.9in /  1012.9hPa NNW 2.9mph /  4.7km/h 3mph /  4.8km/h 90% 0in /  0.0mm 5 W/m2
16:00 36.3 °F /  2.4 °C 33.6 °F /  0.9 °C 29.9in /  1012.5hPa North 2mph /  3.2km/h 2mph /  3.2km/h 90% 0in /  0.0mm 7 W/m2
16:05 36.3 °F /  2.4 °C 33.6 °F /  0.9 °C 29.9in /  1012.5hPa Calm   2mph /  3.2km/h 90% 0in /  0.0mm 5 W/m2
16:10 36.3 °F /  2.4 °C 33.6 °F /  0.9 °C 29.9in /  1012.5hPa NNW 0.9mph /  1.4km/h 3mph /  4.8km/h 90% 0in /  0.0mm 7 W/m2
16:15 36.3 °F /  2.4 °C 33.6 °F /  0.9 °C 29.9in /  1012.5hPa NNE 2mph /  3.2km/h 6mph /  9.7km/h 90% 0in /  0.0mm 5 W/m2
16:20 36.3 °F /  2.4 °C 33.6 °F /  0.9 °C 29.9in /  1012.5hPa North 2mph /  3.2km/h 3mph /  4.8km/h 90% 0in /  0.0mm 0 W/m2
16:25 36.3 °F /  2.4 °C 33.6 °F /  0.9 °C 29.9in /  1012.5hPa ENE 0.9mph /  1.4km/h 6mph /  9.7km/h 90% 0in /  0.0mm 0 W/m2
16:30 36.1 °F /  2.3 °C 33.4 °F /  0.8 °C 29.9in /  1012.5hPa East 2mph /  3.2km/h 4mph /  6.4km/h 90% 0in /  0.0mm 0 W/m2
16:35 36.1 °F /  2.3 °C 33.4 °F /  0.8 °C 29.9in /  1012.5hPa West 2mph /  3.2km/h 2mph /  3.2km/h 90% 0in /  0.0mm 0 W/m2
16:40 36.1 °F /  2.3 °C 33.4 °F /  0.8 °C 29.9in /  1012.5hPa Calm   4mph /  6.4km/h 90% 0in /  0.0mm 0 W/m2
16:45 36.1 °F /  2.3 °C 33.8 °F /  1 °C 29.9in /  1012.5hPa North 0.9mph /  1.4km/h 3mph /  4.8km/h 91% 0in /  0.0mm 0 W/m2
16:50 36.1 °F /  2.3 °C 33.8 °F /  1 °C 29.9in /  1012.9hPa NNW 4mph /  6.4km/h 4mph /  6.4km/h 91% 0in /  0.0mm 0 W/m2
16:55 36.1 °F /  2.3 °C 33.8 °F /  1 °C 29.9in /  1012.9hPa NNW 2mph /  3.2km/h 3mph /  4.8km/h 91% 0in /  0.0mm 0 W/m2
17:00 36.1 °F /  2.3 °C 33.8 °F /  1 °C 29.9in /  1012.9hPa ENE 0.9mph /  1.4km/h 3mph /  4.8km/h 91% 0in /  0.0mm 0 W/m2
17:05 36.1 °F /  2.3 °C 33.8 °F /  1 °C 29.9in /  1012.9hPa NNW 0.9mph /  1.4km/h 3mph /  4.8km/h 91% 0in /  0.0mm 0 W/m2
17:10 36.1 °F /  2.3 °C 33.8 °F /  1 °C 29.9in /  1012.9hPa NNW 4mph /  6.4km/h 4mph /  6.4km/h 91% 0in /  0.0mm 0 W/m2
17:15 36.1 °F /  2.3 °C 33.8 °F /  1 °C 29.9in /  1012.9hPa North 0.9mph /  1.4km/h 3mph /  4.8km/h 91% 0in /  0.0mm 0 W/m2
17:20 36.1 °F /  2.3 °C 33.8 °F /  1 °C 29.9in /  1012.9hPa Calm   3mph /  4.8km/h 91% 0in /  0.0mm 0 W/m2
17:25 36.1 °F /  2.3 °C 33.8 °F /  1 °C 29.9in /  1012.9hPa North 0.9mph /  1.4km/h 3mph /  4.8km/h 91% 0in /  0.0mm 0 W/m2
17:30 36.1 °F /  2.3 °C 33.8 °F /  1 °C 29.9in /  1012.9hPa East 0.9mph /  1.4km/h 8mph /  12.9km/h 91% 0in /  0.0mm 0 W/m2
17:35 36.1 °F /  2.3 °C 33.8 °F /  1 °C 29.9in /  1012.9hPa East 4mph /  6.4km/h 6mph /  9.7km/h 91% 0in /  0.0mm 0 W/m2
17:40 36.1 °F /  2.3 °C 33.8 °F /  1 °C 29.9in /  1012.9hPa NNW 0.9mph /  1.4km/h 8mph /  12.9km/h 91% 0in /  0.0mm 0 W/m2
17:45 36.1 °F /  2.3 °C 33.8 °F /  1 °C 29.9in /  1012.9hPa East 2mph /  3.2km/h 4mph /  6.4km/h 91% 0in /  0.0mm 0 W/m2
17:50 36.1 °F /  2.3 °C 33.8 °F /  1 °C 29.9in /  1012.9hPa Calm   3mph /  4.8km/h 91% 0in /  0.0mm 0 W/m2
17:55 36.1 °F /  2.3 °C 33.8 °F /  1 °C 29.9in /  1012.9hPa Calm   6mph /  9.7km/h 91% 0in /  0.0mm 0 W/m2
18:00 36.1 °F /  2.3 °C 33.8 °F /  1 °C 29.9in /  1012.9hPa Calm   6mph /  9.7km/h 91% 0in /  0.0mm 0 W/m2
18:05 36.1 °F /  2.3 °C 33.8 °F /  1 °C 29.9in /  1012.9hPa ENE 0.9mph /  1.4km/h 2mph /  3.2km/h 91% 0in /  0.0mm 0 W/m2
18:10 36.1 °F /  2.3 °C 33.8 °F /  1 °C 29.9in /  1012.9hPa NNW 4mph /  6.4km/h 5mph /  8km/h 91% 0in /  0.0mm 0 W/m2
18:15 36.1 °F /  2.3 °C 33.8 °F /  1 °C 29.9in /  1012.9hPa Calm   2mph /  3.2km/h 91% 0in /  0.0mm 0 W/m2
18:20 36.1 °F /  2.3 °C 33.8 °F /  1 °C 29.9in /  1012.9hPa North 2mph /  3.2km/h 2mph /  3.2km/h 91% 0in /  0.0mm 0 W/m2
18:25 36.1 °F /  2.3 °C 33.8 °F /  1 °C 29.9in /  1012.9hPa ENE 0.9mph /  1.4km/h 2mph /  3.2km/h 91% 0in /  0.0mm 0 W/m2
18:30 36.1 °F /  2.3 °C 33.8 °F /  1 °C 29.9in /  1012.9hPa NNW 2mph /  3.2km/h 6mph /  9.7km/h 91% 0in /  0.0mm 0 W/m2
18:35 36.1 °F /  2.3 °C 33.8 °F /  1 °C 29.9in /  1012.9hPa NE 0.9mph /  1.4km/h 5mph /  8km/h 91% 0in /  0.0mm 0 W/m2
18:40 36.1 °F /  2.3 °C 33.8 °F /  1 °C 29.9in /  1012.9hPa Calm   6mph /  9.7km/h 91% 0in /  0.0mm 0 W/m2
18:45 36.1 °F /  2.3 °C 33.8 °F /  1 °C 29.9in /  1012.9hPa NNW 2.9mph /  4.7km/h 5mph /  8km/h 91% 0in /  0.0mm 0 W/m2
18:50 36.1 °F /  2.3 °C 33.8 °F /  1 °C 29.9in /  1012.9hPa Calm   3mph /  4.8km/h 91% 0in /  0.0mm 0 W/m2
18:55 36.1 °F /  2.3 °C 33.8 °F /  1 °C 29.9in /  1012.9hPa NE 2mph /  3.2km/h 2mph /  3.2km/h 91% 0in /  0.0mm 0 W/m2
19:00 36.1 °F /  2.3 °C 33.8 °F /  1 °C 29.9in /  1012.9hPa South 0.9mph /  1.4km/h 3mph /  4.8km/h 91% 0in /  0.0mm 0 W/m2
19:05 36.1 °F /  2.3 °C 33.8 °F /  1 °C 29.9in /  1012.9hPa Calm   2mph /  3.2km/h 91% 0in /  0.0mm 0 W/m2
19:10 36.1 °F /  2.3 °C 33.8 °F /  1 °C 29.9in /  1012.9hPa NNE 2mph /  3.2km/h 3mph /  4.8km/h 91% 0in /  0.0mm 0 W/m2
19:15 36.1 °F /  2.3 °C 33.8 °F /  1 °C 29.9in /  1012.9hPa NNW 2mph /  3.2km/h 5mph /  8km/h 91% 0in /  0.0mm 0 W/m2
19:20 36.1 °F /  2.3 °C 33.8 °F /  1 °C 29.9in /  1012.9hPa East 2.9mph /  4.7km/h 3mph /  4.8km/h 91% 0in /  0.0mm 0 W/m2
19:25 36.1 °F /  2.3 °C 33.8 °F /  1 °C 29.9in /  1012.9hPa ENE 0.9mph /  1.4km/h 5mph /  8km/h 91% 0in /  0.0mm 0 W/m2
19:30 36.1 °F /  2.3 °C 33.8 °F /  1 °C 29.9in /  1012.9hPa Calm   2mph /  3.2km/h 91% 0in /  0.0mm 0 W/m2
19:35 36.1 °F /  2.3 °C 33.8 °F /  1 °C 29.9in /  1012.9hPa East 2.9mph /  4.7km/h 6mph /  9.7km/h 91% 0in /  0.0mm 0 W/m2
19:40 36.1 °F /  2.3 °C 33.8 °F /  1 °C 29.9in /  1012.9hPa ESE 2mph /  3.2km/h 4mph /  6.4km/h 91% 0in /  0.0mm 0 W/m2
19:45 36.1 °F /  2.3 °C 33.8 °F /  1 °C 29.9in /  1012.9hPa North 4.9mph /  7.9km/h 5mph /  8km/h 91% 0in /  0.0mm 0 W/m2
19:51 36.1 °F /  2.3 °C 33.8 °F /  1 °C 29.9in /  1012.9hPa Calm   2mph /  3.2km/h 91% 0in /  0.0mm 0 W/m2
19:56 36.3 °F /  2.4 °C 34 °F /  1.1 °C 29.9in /  1012.9hPa ESE 2.9mph /  4.7km/h 3mph /  4.8km/h 91% 0in /  0.0mm 0 W/m2
20:01 36.3 °F /  2.4 °C 34 °F /  1.1 °C 29.9in /  1012.9hPa East 4mph /  6.4km/h 5mph /  8km/h 91% 0in /  0.0mm 0 W/m2
20:06 36.3 °F /  2.4 °C 34 °F /  1.1 °C 29.9in /  1012.9hPa North 4mph /  6.4km/h 7mph /  11.3km/h 91% 0in /  0.0mm 0 W/m2
20:11 36.3 °F /  2.4 °C 34 °F /  1.1 °C 29.9in /  1012.9hPa ENE 2.9mph /  4.7km/h 6mph /  9.7km/h 91% 0in /  0.0mm 0 W/m2
20:16 36.3 °F /  2.4 °C 34 °F /  1.1 °C 29.9in /  1012.9hPa North 0.9mph /  1.4km/h 2mph /  3.2km/h 91% 0in /  0.0mm 0 W/m2
20:21 36.3 °F /  2.4 °C 34 °F /  1.1 °C 29.9in /  1012.9hPa NE 2.9mph /  4.7km/h 3mph /  4.8km/h 91% 0in /  0.0mm 0 W/m2
20:26 36.3 °F /  2.4 °C 34 °F /  1.1 °C 29.9in /  1012.9hPa NE 0.9mph /  1.4km/h 2mph /  3.2km/h 91% 0in /  0.0mm 0 W/m2
20:31 36.3 °F /  2.4 °C 34 °F /  1.1 °C 29.9in /  1012.9hPa Calm   2mph /  3.2km/h 91% 0in /  0.0mm 0 W/m2
20:36 36.3 °F /  2.4 °C 34 °F /  1.1 °C 29.9in /  1012.9hPa Calm   2mph /  3.2km/h 91% 0in /  0.0mm 0 W/m2
20:41 36.3 °F /  2.4 °C 34 °F /  1.1 °C 29.9in /  1012.9hPa NE 0.9mph /  1.4km/h 3mph /  4.8km/h 91% 0in /  0.0mm 0 W/m2
20:46 36.3 °F /  2.4 °C 34 °F /  1.1 °C 29.9in /  1012.9hPa Calm   3mph /  4.8km/h 91% 0in /  0.0mm 0 W/m2
20:51 36.3 °F /  2.4 °C 34 °F /  1.1 °C 29.9in /  1012.9hPa North 2mph /  3.2km/h 3mph /  4.8km/h 91% 0in /  0.0mm 0 W/m2
20:56 36.3 °F /  2.4 °C 34 °F /  1.1 °C 29.9in /  1012.9hPa NNW 2mph /  3.2km/h 2mph /  3.2km/h 91% 0in /  0.0mm 0 W/m2
21:01 36.3 °F /  2.4 °C 34 °F /  1.1 °C 29.9in /  1012.9hPa East 2mph /  3.2km/h 7mph /  11.3km/h 91% 0in /  0.0mm 0 W/m2
21:06 36.3 °F /  2.4 °C 34 °F /  1.1 °C 29.9in /  1012.9hPa ESE 2mph /  3.2km/h 4mph /  6.4km/h 91% 0in /  0.0mm 0 W/m2
21:11 36.3 °F /  2.4 °C 34 °F /  1.1 °C 29.9in /  1012.9hPa Calm   3mph /  4.8km/h 91% 0in /  0.0mm 0 W/m2
21:16 36.3 °F /  2.4 °C 34 °F /  1.1 °C 29.9in /  1012.9hPa ENE 0.9mph /  1.4km/h 2mph /  3.2km/h 91% 0in /  0.0mm 0 W/m2
21:21 36.3 °F /  2.4 °C 34 °F /  1.1 °C 29.9in /  1012.9hPa NNE 0.9mph /  1.4km/h 2mph /  3.2km/h 91% 0in /  0.0mm 0 W/m2
21:26 36.3 °F /  2.4 °C 34.2 °F /  1.2 °C 29.9in /  1012.9hPa East 2mph /  3.2km/h 4mph /  6.4km/h 92% 0in /  0.0mm 0 W/m2
21:31 36.3 °F /  2.4 °C 34.2 °F /  1.2 °C 29.9in /  1012.9hPa Calm   3mph /  4.8km/h 92% 0in /  0.0mm 0 W/m2
21:36 36.3 °F /  2.4 °C 34.2 °F /  1.2 °C 29.9in /  1012.9hPa Calm   2mph /  3.2km/h 92% 0in /  0.0mm 0 W/m2
21:41 36.3 °F /  2.4 °C 34.2 °F /  1.2 °C 29.9in /  1012.9hPa Calm   2mph /  3.2km/h 92% 0in /  0.0mm 0 W/m2
21:46 36.3 °F /  2.4 °C 34.2 °F /  1.2 °C 29.9in /  1012.9hPa Calm   3mph /  4.8km/h 92% 0in /  0.0mm 0 W/m2
21:51 36.3 °F /  2.4 °C 34.2 °F /  1.2 °C 29.9in /  1012.9hPa East 2mph /  3.2km/h 3mph /  4.8km/h 92% 0in /  0.0mm 0 W/m2
21:56 36.3 °F /  2.4 °C 34.2 °F /  1.2 °C 29.9in /  1012.9hPa ENE 0.9mph /  1.4km/h 2mph /  3.2km/h 92% 0in /  0.0mm 0 W/m2
22:01 36.3 °F /  2.4 °C 34.2 °F /  1.2 °C 29.9in /  1012.9hPa Calm     92% 0in /  0.0mm 0 W/m2
22:06 36.3 °F /  2.4 °C 34.2 °F /  1.2 °C 29.9in /  1012.9hPa Calm   2mph /  3.2km/h 92% 0in /  0.0mm 0 W/m2
22:11 36.3 °F /  2.4 °C 34 °F /  1.1 °C 29.9in /  1012.9hPa Calm   2mph /  3.2km/h 91% 0in /  0.0mm 0 W/m2
22:16 36.3 °F /  2.4 °C 34 °F /  1.1 °C 29.9in /  1012.9hPa West 2mph /  3.2km/h 3mph /  4.8km/h 91% 0in /  0.0mm 0 W/m2
22:21 36.3 °F /  2.4 °C 34 °F /  1.1 °C 29.9in /  1012.9hPa Calm   1mph /  1.6km/h 91% 0in /  0.0mm 0 W/m2
22:26 36.3 °F /  2.4 °C 34 °F /  1.1 °C 29.9in /  1012.9hPa Calm   3mph /  4.8km/h 91% 0in /  0.0mm 0 W/m2
22:31 36.5 °F /  2.5 °C 34.2 °F /  1.2 °C 29.9in /  1012.9hPa Calm   2mph /  3.2km/h 91% 0in /  0.0mm 0 W/m2
22:36 36.5 °F /  2.5 °C 34.2 °F /  1.2 °C 29.9in /  1012.9hPa Calm   2mph /  3.2km/h 91% 0in /  0.0mm 0 W/m2
22:41 36.5 °F /  2.5 °C 34.2 °F /  1.2 °C 29.9in /  1013.2hPa Calm   2mph /  3.2km/h 91% 0in /  0.0mm 0 W/m2
22:46 36.5 °F /  2.5 °C 34.2 °F /  1.2 °C 29.9in /  1013.2hPa NNW 0.9mph /  1.4km/h 3mph /  4.8km/h 91% 0in /  0.0mm 0 W/m2
22:51 36.5 °F /  2.5 °C 34.2 °F /  1.2 °C 29.9in /  1013.2hPa NW 0.9mph /  1.4km/h 3mph /  4.8km/h 91% 0in /  0.0mm 0 W/m2
22:56 36.5 °F /  2.5 °C 34.2 °F /  1.2 °C 29.9in /  1013.2hPa NW 2.9mph /  4.7km/h 3mph /  4.8km/h 91% 0in /  0.0mm 0 W/m2
23:01 36.5 °F /  2.5 °C 34.2 °F /  1.2 °C 29.9in /  1012.9hPa NE 0.9mph /  1.4km/h 2mph /  3.2km/h 91% 0in /  0.0mm 0 W/m2
23:06 36.5 °F /  2.5 °C 34.2 °F /  1.2 °C 29.9in /  1013.2hPa WNW 2.9mph /  4.7km/h 4mph /  6.4km/h 91% 0in /  0.0mm 0 W/m2
23:11 36.5 °F /  2.5 °C 34.2 °F /  1.2 °C 29.9in /  1012.9hPa NW 2mph /  3.2km/h 4mph /  6.4km/h 91% 0in /  0.0mm 0 W/m2
23:16 36.5 °F /  2.5 °C 34.2 °F /  1.2 °C 29.9in /  1012.9hPa NNW 2mph /  3.2km/h 4mph /  6.4km/h 91% 0in /  0.0mm 0 W/m2
23:21 36.5 °F /  2.5 °C 34.2 °F /  1.2 °C 29.9in /  1012.9hPa Calm   2mph /  3.2km/h 91% 0in /  0.0mm 0 W/m2
23:26 36.3 °F /  2.4 °C 34 °F /  1.1 °C 29.9in /  1013.2hPa NW 0.9mph /  1.4km/h 4mph /  6.4km/h 91% 0in /  0.0mm 0 W/m2
23:31 36.3 °F /  2.4 °C 34 °F /  1.1 °C 29.9in /  1013.2hPa North 0.9mph /  1.4km/h 2mph /  3.2km/h 91% 0in /  0.0mm 0 W/m2
23:36 36.3 °F /  2.4 °C 34 °F /  1.1 °C 29.9in /  1013.2hPa WNW 2.9mph /  4.7km/h 3mph /  4.8km/h 91% 0in /  0.0mm 0 W/m2
23:41 36.3 °F /  2.4 °C 34 °F /  1.1 °C 29.9in /  1013.2hPa NNW 2mph /  3.2km/h 2mph /  3.2km/h 91% 0in /  0.0mm 0 W/m2
23:46 36.3 °F /  2.4 °C 34 °F /  1.1 °C 29.9in /  1013.2hPa Calm   3mph /  4.8km/h 91% 0in /  0.0mm 0 W/m2
23:51 36.5 °F /  2.5 °C 34.2 °F /  1.2 °C 29.9in /  1013.2hPa NW 0.9mph /  1.4km/h 2mph /  3.2km/h 91% 0in /  0.0mm 0 W/m2
23:56 36.5 °F /  2.5 °C 34.2 °F /  1.2 °C 29.9in /  1012.9hPa West 2.9mph /  4.7km/h 4mph /  6.4km/h 91% 0in /  0.0mm 0 W/m2
Juneau County Weather
Compliments of Weather Underground - 4 mb